createdAt,value
2024-02-10T00:01:26.431Z,4.20
2024-02-10T00:05:39.549Z,3.95
2024-02-10T00:09:52.215Z,4.13
2024-02-10T00:14:04.884Z,3.97
2024-02-10T00:18:21.169Z,4.18
2024-02-10T00:22:33.772Z,3.85
2024-02-10T00:26:47.714Z,3.83
2024-02-10T00:31:01.893Z,4.05
2024-02-10T00:35:14.414Z,5.60
2024-02-10T00:39:26.964Z,5.63
2024-02-10T00:43:44.777Z,5.63
2024-02-10T00:47:57.889Z,4.53
2024-02-10T00:52:10.927Z,4.47
2024-02-10T00:56:23.734Z,4.47
2024-02-10T01:00:38.448Z,4.60
2024-02-10T01:04:51.667Z,4.00
2024-02-10T01:09:04.345Z,4.10
2024-02-10T01:13:16.947Z,3.40
2024-02-10T01:17:29.491Z,4.47
2024-02-10T01:21:42.102Z,3.80
2024-02-10T01:25:54.760Z,4.25
2024-02-10T01:30:09.336Z,4.25
2024-02-10T01:34:21.880Z,4.15
2024-02-10T01:38:46.825Z,3.75
2024-02-10T01:42:59.409Z,4.25
2024-02-10T01:47:13.781Z,3.97
2024-02-10T01:51:26.575Z,4.28
2024-02-10T01:55:39.461Z,4.07
2024-02-10T01:59:53.960Z,4.35
2024-02-10T02:04:10.437Z,4.32
2024-02-10T02:08:23.128Z,4.45
2024-02-10T02:12:35.644Z,4.10
2024-02-10T02:16:48.644Z,4.20
2024-02-10T02:21:01.900Z,4.53
2024-02-10T02:25:14.597Z,4.00
2024-02-10T02:29:27.078Z,3.65
2024-02-10T02:33:40.608Z,3.75
2024-02-10T02:37:54.705Z,3.50
2024-02-10T02:42:07.681Z,3.60
2024-02-10T02:46:20.370Z,3.80
2024-02-10T02:50:33.513Z,4.32
2024-02-10T02:54:46.144Z,3.65
2024-02-10T02:58:59.052Z,3.15
2024-02-10T03:03:11.561Z,3.95
2024-02-10T03:07:24.603Z,4.25
2024-02-10T03:11:38.277Z,3.85
2024-02-10T03:15:50.754Z,3.88
2024-02-10T03:20:03.355Z,4.38
2024-02-10T03:24:15.842Z,4.68
2024-02-10T03:28:28.302Z,4.32
2024-02-10T03:32:40.895Z,4.70
2024-02-10T03:36:53.394Z,4.47
2024-02-10T03:41:06.192Z,4.45
2024-02-10T03:45:20.418Z,3.75
2024-02-10T03:49:33.021Z,4.50
2024-02-10T03:53:45.582Z,4.00
2024-02-10T03:58:01.064Z,4.50
2024-02-10T04:02:13.603Z,4.50
2024-02-10T04:06:26.151Z,4.60
2024-02-10T04:10:38.996Z,4.70
2024-02-10T04:14:51.534Z,4.32
2024-02-10T04:19:04.253Z,4.85
2024-02-10T04:23:18.036Z,4.97
2024-02-10T04:27:30.879Z,5.07
2024-02-10T04:31:43.414Z,4.90
2024-02-10T04:35:56.009Z,4.60
2024-02-10T04:40:09.328Z,4.28
2024-02-10T04:44:22.326Z,4.38
2024-02-10T04:48:34.858Z,4.55
2024-02-10T04:52:48.094Z,4.60
2024-02-10T04:57:00.894Z,5.00
2024-02-10T05:01:14.166Z,4.85
2024-02-10T05:05:27.095Z,4.82
2024-02-10T05:09:40.924Z,4.68
2024-02-10T05:13:53.460Z,5.28
2024-02-10T05:18:07.156Z,4.35
2024-02-10T05:22:20.701Z,5.07
2024-02-10T05:26:38.378Z,4.88
2024-02-10T05:30:52.487Z,4.60
2024-02-10T05:35:05.526Z,5.00
2024-02-10T05:39:22.054Z,4.95
2024-02-10T05:43:35.022Z,4.90
2024-02-10T05:47:51.712Z,4.90
2024-02-10T05:52:07.385Z,5.03
2024-02-10T05:56:19.938Z,4.97
2024-02-10T06:00:33.769Z,4.82
2024-02-10T06:04:46.466Z,5.00
2024-02-10T06:08:59.328Z,3.95
2024-02-10T06:13:11.882Z,4.18
2024-02-10T06:17:26.253Z,4.80
2024-02-10T06:21:39.451Z,3.83
2024-02-10T06:25:55.486Z,4.70
2024-02-10T06:30:18.981Z,4.13
2024-02-10T06:34:31.546Z,3.72
2024-02-10T06:38:44.215Z,4.00
2024-02-10T06:42:56.752Z,3.88
2024-02-10T06:47:09.317Z,3.72
2024-02-10T06:51:23.688Z,4.22
2024-02-10T06:55:36.318Z,3.72
2024-02-10T06:59:49.769Z,4.18
2024-02-10T07:04:02.323Z,4.53
2024-02-10T07:08:17.010Z,4.05
2024-02-10T07:12:29.546Z,3.92
2024-02-10T07:16:42.250Z,4.47
2024-02-10T07:20:54.816Z,4.50
2024-02-10T07:25:09.656Z,4.43
2024-02-10T07:29:22.188Z,4.40
2024-02-10T07:33:34.865Z,4.22
2024-02-10T07:37:48.762Z,4.50
2024-02-10T07:42:03.351Z,4.50
2024-02-10T07:46:18.773Z,4.80
2024-02-10T07:50:31.309Z,5.80
2024-02-10T07:54:43.909Z,5.35
2024-02-10T07:59:01.852Z,5.57
2024-02-10T08:03:14.544Z,5.45
2024-02-10T08:07:32.123Z,5.80
2024-02-10T08:11:45.690Z,5.47
2024-02-10T08:16:00.447Z,4.95
2024-02-10T08:20:14.412Z,5.85
2024-02-10T08:24:33.212Z,5.20
2024-02-10T08:28:59.271Z,4.55
2024-02-10T08:33:11.883Z,5.30
2024-02-10T08:37:24.506Z,5.53
2024-02-10T08:41:37.719Z,5.25
2024-02-10T08:45:50.268Z,4.90
2024-02-10T08:50:03.676Z,4.78
2024-02-10T08:54:16.578Z,4.63
2024-02-10T08:58:29.163Z,4.35
2024-02-10T09:02:41.746Z,4.28
2024-02-10T09:06:54.302Z,5.18
2024-02-10T09:11:07.016Z,4.80
2024-02-10T09:15:19.613Z,4.22
2024-02-10T09:19:37.214Z,5.00
2024-02-10T09:23:49.900Z,6.47
2024-02-10T09:28:02.807Z,6.22
2024-02-10T09:32:16.506Z,5.20
2024-02-10T09:36:33.417Z,5.00
2024-02-10T09:40:47.908Z,5.47
2024-02-10T09:45:00.567Z,4.70
2024-02-10T09:49:15.694Z,4.38
2024-02-10T09:53:28.274Z,4.93
2024-02-10T09:57:43.780Z,4.55
2024-02-10T10:01:58.215Z,4.45
2024-02-10T10:06:12.168Z,4.60
2024-02-10T10:10:24.737Z,4.53
2024-02-10T10:14:40.737Z,4.05
2024-02-10T10:18:54.868Z,5.00
2024-02-10T10:23:09.382Z,5.70
2024-02-10T10:27:24.026Z,5.82
2024-02-10T10:31:37.897Z,5.25
2024-02-10T10:35:50.907Z,5.25
2024-02-10T10:40:04.019Z,5.72
2024-02-10T10:44:16.758Z,5.00
2024-02-10T10:48:29.408Z,4.47
2024-02-10T10:52:43.163Z,4.78
2024-02-10T10:56:55.761Z,4.68
2024-02-10T11:01:13.759Z,4.75
2024-02-10T11:05:28.922Z,4.43
2024-02-10T11:09:56.238Z,4.03
2024-02-10T11:14:12.666Z,3.90
2024-02-10T11:18:25.315Z,4.40
2024-02-10T11:22:39.400Z,4.55
2024-02-10T11:26:56.067Z,4.85
2024-02-10T11:31:11.461Z,4.20
2024-02-10T11:35:24.091Z,4.50
2024-02-10T11:39:36.698Z,4.68
2024-02-10T11:43:52.470Z,4.05
2024-02-10T11:48:05.425Z,4.18
2024-02-10T11:52:18.244Z,6.18
2024-02-10T11:56:35.442Z,4.60
2024-02-10T12:00:48.426Z,4.43
2024-02-10T12:05:01.212Z,4.57
2024-02-10T12:09:13.949Z,4.40
2024-02-10T12:13:28.979Z,4.28
2024-02-10T12:17:41.664Z,4.57
2024-02-10T12:21:54.300Z,5.28
2024-02-10T12:26:06.831Z,5.43
2024-02-10T12:30:20.961Z,5.68
2024-02-10T12:34:33.836Z,4.53
2024-02-10T12:38:46.645Z,4.80
2024-02-10T12:42:59.133Z,4.60
2024-02-10T12:47:13.685Z,5.30
2024-02-10T12:51:27.090Z,5.18
2024-02-10T12:55:40.254Z,5.25
2024-02-10T12:59:55.443Z,5.18
2024-02-10T13:04:07.963Z,4.47
2024-02-10T13:08:20.472Z,4.72
2024-02-10T13:12:34.158Z,5.25
2024-02-10T13:16:46.820Z,4.85
2024-02-10T13:21:00.534Z,4.32
2024-02-10T13:25:13.456Z,4.05
2024-02-10T13:29:26.722Z,3.88
2024-02-10T13:33:42.698Z,4.28
2024-02-10T13:38:14.264Z,3.60
2024-02-10T13:42:45.203Z,3.33
2024-02-10T13:47:16.392Z,3.20
2024-02-10T13:51:48.245Z,3.22
2024-02-10T13:56:19.177Z,3.50
2024-02-10T14:00:32.860Z,2.95
2024-02-10T14:04:49.742Z,3.08
2024-02-10T14:09:06.175Z,2.42
2024-02-10T14:13:26.701Z,2.00
2024-02-10T14:17:40.247Z,2.00
2024-02-10T14:21:54.963Z,1.80
2024-02-10T14:26:14.452Z,1.52
2024-02-10T14:30:40.026Z,1.20
2024-02-10T14:35:20.890Z,1.50
2024-02-10T14:39:35.777Z,1.10
2024-02-10T14:43:48.387Z,1.02
2024-02-10T14:48:00.957Z,1.20
2024-02-10T14:52:15.216Z,0.90
2024-02-10T14:56:32.905Z,1.00
2024-02-10T15:00:51.762Z,1.20
2024-02-10T15:05:04.757Z,0.80
2024-02-10T15:09:19.390Z,1.10
2024-02-10T15:13:31.916Z,1.15
2024-02-10T15:17:46.830Z,1.10
2024-02-10T15:22:00.646Z,0.90
2024-02-10T15:26:14.520Z,0.77
2024-02-10T15:30:27.133Z,0.82
2024-02-10T15:34:48.118Z,0.60
2024-02-10T15:39:07.894Z,0.65
2024-02-10T15:43:23.161Z,1.13
2024-02-10T15:47:35.751Z,1.20
2024-02-10T15:51:48.302Z,1.40
2024-02-10T15:56:00.802Z,1.33
2024-02-10T16:00:16.939Z,1.48
2024-02-10T16:04:29.835Z,2.08
2024-02-10T16:08:51.262Z,1.42
2024-02-10T16:13:03.793Z,2.30
2024-02-10T16:17:16.701Z,1.38
2024-02-10T16:21:30.899Z,2.75
2024-02-10T16:25:45.357Z,1.80
2024-02-10T16:30:02.493Z,1.50
2024-02-10T16:34:15.206Z,1.80
2024-02-10T16:38:27.791Z,1.70
2024-02-10T16:42:40.285Z,2.75
2024-02-10T16:46:53.382Z,4.03
2024-02-10T16:51:06.773Z,3.58
2024-02-10T16:55:19.989Z,2.40
2024-02-10T16:59:32.543Z,1.70
2024-02-10T17:03:45.374Z,1.90
2024-02-10T17:08:06.684Z,1.85
2024-02-10T17:12:20.694Z,2.22
2024-02-10T17:16:33.533Z,2.63
2024-02-10T17:20:48.559Z,2.70
2024-02-10T17:25:01.138Z,3.17
2024-02-10T17:29:13.775Z,2.95
2024-02-10T17:33:26.575Z,3.45
2024-02-10T17:37:41.673Z,4.82
2024-02-10T17:41:54.190Z,3.50
2024-02-10T17:46:06.741Z,2.83
2024-02-10T17:50:26.729Z,2.88
2024-02-10T17:54:39.238Z,3.35
2024-02-10T17:58:52.748Z,3.17
2024-02-10T18:03:05.362Z,3.90
2024-02-10T18:07:18.073Z,3.53
2024-02-10T18:11:30.551Z,3.42
2024-02-10T18:15:43.386Z,3.83
2024-02-10T18:19:56.865Z,4.43
2024-02-10T18:24:10.971Z,3.92
2024-02-10T18:28:23.978Z,4.05
2024-02-10T18:32:37.049Z,4.35
2024-02-10T18:36:50.402Z,3.97
2024-02-10T18:41:02.984Z,4.47
2024-02-10T18:45:16.291Z,3.97
2024-02-10T18:49:29.562Z,4.38
2024-02-10T18:53:42.097Z,3.92
2024-02-10T18:57:54.662Z,4.40
2024-02-10T19:02:08.326Z,4.05
2024-02-10T19:06:24.184Z,4.00
2024-02-10T19:10:37.596Z,4.32
2024-02-10T19:14:50.223Z,4.45
2024-02-10T19:19:02.886Z,4.22
2024-02-10T19:23:15.646Z,4.55
2024-02-10T19:27:28.157Z,4.50
2024-02-10T19:31:42.012Z,4.13
2024-02-10T19:35:55.115Z,3.85
2024-02-10T19:40:09.091Z,4.68
2024-02-10T19:44:23.993Z,4.43
2024-02-10T19:48:36.624Z,4.47
2024-02-10T19:52:49.340Z,4.53
2024-02-10T19:57:02.986Z,4.40
2024-02-10T20:01:15.467Z,4.10
2024-02-10T20:05:28.664Z,4.82
2024-02-10T20:09:41.325Z,4.53
2024-02-10T20:13:54.531Z,4.30
2024-02-10T20:18:07.244Z,4.32
2024-02-10T20:22:20.364Z,5.05
2024-02-10T20:26:32.958Z,4.63
2024-02-10T20:30:46.562Z,4.85
2024-02-10T20:34:59.878Z,4.47
2024-02-10T20:39:15.970Z,4.35
2024-02-10T20:43:28.509Z,3.83
2024-02-10T20:47:41.564Z,4.32
2024-02-10T20:51:56.730Z,4.25
2024-02-10T20:56:14.470Z,4.13
2024-02-10T21:00:27.375Z,4.57
2024-02-10T21:04:39.910Z,4.22
2024-02-10T21:08:52.410Z,5.05
2024-02-10T21:13:05.070Z,4.50
2024-02-10T21:17:17.588Z,4.75
2024-02-10T21:21:30.200Z,5.30
2024-02-10T21:25:45.172Z,4.53
2024-02-10T21:29:58.930Z,3.88
2024-02-10T21:34:12.064Z,4.45
2024-02-10T21:38:24.600Z,3.92
2024-02-10T21:42:38.122Z,4.32
2024-02-10T21:46:52.498Z,4.30
2024-02-10T21:51:05.213Z,4.38
2024-02-10T21:55:17.805Z,4.30
2024-02-10T21:59:30.315Z,4.72
2024-02-10T22:03:43.182Z,5.53
2024-02-10T22:07:55.840Z,4.90
2024-02-10T22:12:09.706Z,4.68
2024-02-10T22:16:23.079Z,4.72
2024-02-10T22:20:36.156Z,5.40
2024-02-10T22:24:48.652Z,5.50
2024-02-10T22:29:01.203Z,5.13
2024-02-10T22:33:14.586Z,5.63
2024-02-10T22:37:27.193Z,5.07
2024-02-10T22:41:42.790Z,4.85
2024-02-10T22:45:55.471Z,5.55
2024-02-10T22:50:08.132Z,4.90
2024-02-10T22:54:20.682Z,5.47
2024-02-10T22:58:33.177Z,5.30
2024-02-10T23:02:47.090Z,5.07
2024-02-10T23:07:00.588Z,5.40
2024-02-10T23:11:13.065Z,5.25
2024-02-10T23:15:25.939Z,5.10
2024-02-10T23:19:44.180Z,4.55
2024-02-10T23:24:00.688Z,4.77
2024-02-10T23:28:17.256Z,5.07
2024-02-10T23:32:32.844Z,5.60
2024-02-10T23:36:50.567Z,6.07
2024-02-10T23:41:05.857Z,5.43
2024-02-10T23:45:19.098Z,5.57
2024-02-10T23:49:38.044Z,6.13
2024-02-10T23:53:51.946Z,5.82
2024-02-10T23:58:06.494Z,5.88
